Camp Douglas, WI (54637)

05:18 CDT le 24 octobre 2014 (GMT -0500)
Volk | Change Station
CLOSE
Current Station
Aéroport
Location: Volk,
Altitude: 909 ft
Stations météo à proximité
Avis météorologiques actifs: Dense Fog Advisory

Alt. 909 ft 43.94 °N, 90.25 °W | Updated 5 minutes ago

Overcast
Couvert
46 ° F
Paraît 45 ° F
N
4
Vent Variable Vent de OSO

Aujourd'hui
Haut(e) -- | Bas -- ° F
--% Risque de précip.
Hier
Haut(e) -- | Bas -- ° F
Precip. -- pouce
7:26 AM 6:02 PM
Nouvelle lune, 0% visible
Pression 30.04 pouce
Visibilité 2.5 Miles terrestres
Nuages Couvert 200 ft
Refroidissement éolien 45 ° F
Point de rosée 46 ° F
Humidité 100%
Précipitations 0.00 pouce
Profondeur de la couche neigeuse Non disponible.
UV 0 sur 12
Pollen .10 sur 12
Qualité de l'air Non disponible.
Flu Activity Sporadic
SPECI KVOK 241013Z AUTO 24003KT 2 1/2SM BR OVC002 08/08 A3004 RMK AO2 VIS 1 1/4V2 1/2

More Conditions Fewer Conditions

Pression 30.04 pouce
Visibilité 2.5 Miles terrestres
Nuages Couvert 200 ft
Refroidissement éolien 45 ° F
Point de rosée 46 ° F
Humidité 100%
Précipitations 0.00 pouce
Profondeur de la couche neigeuse Non disponible.
UV 0 sur 12
Pollen .10 sur 12
Qualité de l'air Non disponible.
Flu Activity Sporadic
SPECI KVOK 241013Z AUTO 24003KT 2 1/2SM BR OVC002 08/08 A3004 RMK AO2 VIS 1 1/4V2 1/2

More Conditions Fewer Conditions

10-Day Weather Forecast

Almanac

Astronomie

Oct. 24, 2014 Lever Coucher
Temps réel 07:26 CDT 18:02 CDT
Crépuscule civil 06:57 CDT 18:32 CDT
Crépuscule nautique 06:23 CDT 19:05 CDT
Crépuscule astronomique 05:50 CDT 19:39 CDT
Lune 08:07 CDT 18:41 CDT
Durée de lumière visible 11h 34m
Longueur du jour
10h 35m
Tomorrow will be 2m 48s shorter.
Nouvelle lune, 0% of the Moon is Illuminated
Aujourd'hui
Nouvelle lune
Oct 30
Premier quartier
Nov 6
Pleine lune
Nov 14
Dernier quartier
Nov 22
Nouveau

Extrêmes aujourd'hui

State Highs State Lows

Community

WunderPhotos

Upload Photos

1,764,513 Photos téléchargées !

WunderBlogs® & News

Nearby

Épaisseur de neige

Station Depth Altitude
Pas de nouvelles chutes de neige

Activité sismique

Ville Distance Mag. Time & Date
No recent earthquake activity has been reported nearby.
Minimum magnitude displayed is 2.5.

Températures des eaux côtières

Lieu Température
Aucun rapport de station

Stations météo à proximité